Time;durP1;ratioP1;P1;durP2;ratioP2;P2;SDS_P1;SDS_P2;PMS_P1;PMS_P2;Temp;Humidity;BMP_temperature;BMP_pressure;BME280_temperature;BME280_humidity;BME280_pressure;Samples;Min_cycle;Max_cycle;Signal;HPM_P1;HPM_P2
2024/01/03 00:00:03;;;;;;;40.30;7.90;;;10.10;99.90;;;;;;10532440;28;20071;-72
2024/01/03 00:05:05;;;;;;;;;;;10.20;99.90;;;;;;10529719;27;20632;-75
2024/01/03 00:10:33;;;;;;;37.40;7.22;;;10.40;99.90;;;;;;10536674;28;19935;-78
2024/01/03 00:16:23;;;;;;;62.25;9.50;;;10.30;99.90;;;;;;10514025;28;20372;-73
2024/01/03 00:21:28;;;;;;;42.08;7.53;;;10.30;99.90;;;;;;10485320;28;20055;-75
2024/01/03 00:26:34;;;;;;;43.85;10.18;;;10.30;99.90;;;;;;10532075;28;20050;-75
2024/01/03 00:31:38;;;;;;;41.67;6.57;;;10.40;99.90;;;;;;10536516;27;20052;-73
2024/01/03 00:36:41;;;;;;;41.03;7.15;;;10.40;99.90;;;;;;10540480;28;20127;-74
2024/01/03 00:41:45;;;;;;;35.73;6.87;;;10.50;99.90;;;;;;10536576;27;20174;-74
2024/01/03 00:46:48;;;;;;;39.58;4.97;;;10.50;99.90;;;;;;10536001;27;20505;-74
2024/01/03 00:51:52;;;;;;;47.35;8.35;;;10.60;99.90;;;;;;10524406;28;20043;-74
2024/01/03 00:56:56;;;;;;;43.75;6.50;;;10.50;99.90;;;;;;10524862;27;20668;-72
2024/01/03 01:01:59;;;;;;;27.52;3.30;;;10.60;99.90;;;;;;10536273;28;20052;-74
2024/01/03 01:07:01;;;;;;;37.60;8.25;;;10.60;99.90;;;;;;10532158;27;20422;-76
2024/01/03 01:12:05;;;;;;;32.85;7.15;;;10.50;99.90;;;;;;10539989;27;20739;-78
2024/01/03 01:17:08;;;;;;;47.17;8.50;;;10.60;99.90;;;;;;10530111;27;20059;-74
2024/01/03 01:22:10;;;;;;;35.97;5.47;;;10.60;99.90;;;;;;10537130;27;20063;-74
2024/01/03 01:27:14;;;;;;;38.33;6.22;;;10.70;99.90;;;;;;10530067;27;20168;-76
2024/01/03 01:32:16;;;;;;;51.08;7.75;;;10.60;99.90;;;;;;10524545;27;20063;-74
2024/01/03 01:37:18;;;;;;;28.30;5.22;;;10.70;99.90;;;;;;10534467;27;20089;-73
2024/01/03 01:42:24;;;;;;;39.10;6.30;;;10.60;99.90;;;;;;10531598;27;20077;-75
2024/01/03 01:47:27;;;;;;;29.88;5.30;;;10.70;99.90;;;;;;10529906;27;20522;-73
2024/01/03 01:52:29;;;;;;;44.55;7.30;;;10.60;99.90;;;;;;10524788;27;20044;-73
2024/01/03 01:57:34;;;;;;;38.27;7.27;;;10.60;99.90;;;;;;10535147;27;20169;-73
2024/01/03 02:02:37;;;;;;;37.03;6.80;;;10.50;99.90;;;;;;10529398;28;20056;-75
2024/01/03 02:07:40;;;;;;;41.42;7.60;;;10.40;99.90;;;;;;10527831;27;20055;-73
2024/01/03 02:12:43;;;;;;;37.80;7.10;;;10.50;99.90;;;;;;10526154;27;20118;-72
2024/01/03 02:17:47;;;;;;;34.53;5.93;;;10.50;99.90;;;;;;10536084;27;20054;-74
2024/01/03 02:22:50;;;;;;;36.83;5.38;;;10.50;99.90;;;;;;10528756;27;20070;-73
2024/01/03 02:27:52;;;;;;;51.42;8.68;;;10.30;99.90;;;;;;10538249;27;20075;-74
2024/01/03 02:32:55;;;;;;;34.63;5.90;;;10.40;99.90;;;;;;10528530;27;20176;-73
2024/01/03 02:37:58;;;;;;;39.70;6.73;;;10.40;99.90;;;;;;10522469;27;20104;-70
2024/01/03 02:43:00;;;;;;;42.83;7.55;;;10.30;99.90;;;;;;10526442;28;20084;-74
2024/01/03 02:48:03;;;;;;;33.00;5.32;;;10.40;99.90;;;;;;10529966;27;20083;-75
2024/01/03 02:53:07;;;;;;;29.25;4.10;;;10.50;99.90;;;;;;10526017;27;20086;-73
2024/01/03 02:58:10;;;;;;;28.30;3.67;;;10.50;99.90;;;;;;10535774;27;20134;-76
2024/01/03 03:03:13;;;;;;;52.13;5.82;;;10.50;99.90;;;;;;10543873;27;21404;-74
2024/01/03 03:08:17;;;;;;;54.73;7.93;;;10.50;99.90;;;;;;10536742;27;20793;-74
2024/01/03 03:13:19;;;;;;;49.50;5.85;;;10.50;99.90;;;;;;10523351;28;20048;-74
2024/01/03 03:18:21;;;;;;;56.00;8.82;;;10.50;99.90;;;;;;10527781;27;20040;-74
2024/01/03 03:23:25;;;;;;;50.33;9.17;;;10.50;99.90;;;;;;10532199;27;20409;-74
2024/01/03 03:28:27;;;;;;;51.28;7.63;;;10.60;99.90;;;;;;10528327;28;20040;-73
2024/01/03 03:33:30;;;;;;;32.13;5.25;;;10.50;99.90;;;;;;10527758;28;20056;-73
2024/01/03 03:38:36;;;;;;;46.30;7.75;;;10.50;99.90;;;;;;10526931;27;20118;-74
2024/01/03 03:43:39;;;;;;;39.90;6.80;;;10.40;99.90;;;;;;10525959;27;20047;-73
2024/01/03 03:48:41;;;;;;;62.55;7.90;;;10.40;99.90;;;;;;10526220;27;20119;-74
2024/01/03 03:53:45;;;;;;;38.13;6.00;;;10.40;99.90;;;;;;10515327;27;21291;-73
2024/01/03 04:15:35;;;;;;;55.58;9.02;;;10.30;99.90;;;;;;10610264;27;20107;-75
2024/01/03 04:20:37;;;;;;;62.00;8.77;;;10.40;99.90;;;;;;10620425;27;20051;-75
2024/01/03 04:25:40;;;;;;;48.53;9.73;;;10.40;99.90;;;;;;10622571;27;20057;-72
2024/01/03 04:30:46;;;;;;;63.63;10.73;;;10.50;99.90;;;;;;10620404;27;23080;-74
2024/01/03 04:35:48;;;;;;;49.83;7.47;;;10.50;99.90;;;;;;10626874;27;20172;-72
2024/01/03 04:40:51;;;;;;;63.67;10.00;;;10.60;99.90;;;;;;10627170;27;20047;-70
2024/01/03 04:45:55;;;;;;;73.45;11.90;;;10.50;99.90;;;;;;10626852;27;20058;-75
2024/01/03 04:50:57;;;;;;;83.85;12.95;;;10.50;99.90;;;;;;10623668;27;20055;-73
2024/01/03 04:56:00;;;;;;;71.70;12.52;;;10.50;99.90;;;;;;10626483;27;20052;-74
2024/01/03 05:01:04;;;;;;;57.65;11.10;;;10.40;99.90;;;;;;10621578;27;20053;-73
2024/01/03 05:06:06;;;;;;;68.25;12.15;;;10.40;99.90;;;;;;10613024;27;20070;-73
2024/01/03 05:11:11;;;;;;;56.27;9.67;;;10.30;99.90;;;;;;10626640;27;20043;-74
2024/01/03 05:16:15;;;;;;;51.00;8.02;;;10.40;99.90;;;;;;10623977;27;23299;-74
2024/01/03 05:21:17;;;;;;;62.33;9.02;;;10.40;99.90;;;;;;10614720;27;20051;-73
2024/01/03 05:26:19;;;;;;;71.47;9.05;;;10.40;99.90;;;;;;10600155;27;20275;-74
2024/01/03 05:31:23;;;;;;;58.10;7.93;;;10.40;99.90;;;;;;10596463;27;20039;-73
2024/01/03 05:36:25;;;;;;;37.08;5.60;;;10.30;99.90;;;;;;10596503;27;20043;-72
2024/01/03 05:41:28;;;;;;;34.20;6.67;;;10.30;99.90;;;;;;10594250;27;20051;-71
2024/01/03 05:46:31;;;;;;;34.65;4.75;;;10.20;99.90;;;;;;10578473;27;20480;-73
2024/01/03 05:51:33;;;;;;;55.88;5.45;;;10.20;99.90;;;;;;10594654;27;20051;-72
2024/01/03 05:56:37;;;;;;;44.10;5.60;;;10.20;99.90;;;;;;10594888;27;20059;-72
2024/01/03 06:01:40;;;;;;;61.38;8.60;;;10.20;99.90;;;;;;10592208;27;20047;-73
2024/01/03 06:06:43;;;;;;;69.45;9.48;;;9.90;99.90;;;;;;10587982;27;20289;-73
2024/01/03 06:11:45;;;;;;;4.35;1.67;;;10.00;99.90;;;;;;10585921;27;20051;-74
2024/01/03 06:16:48;;;;;;;0.75;0.73;;;9.90;99.90;;;;;;10590453;27;20058;-72
2024/01/03 06:21:50;;;;;;;0.22;0.22;;;9.70;99.90;;;;;;10590343;27;20047;-72
2024/01/03 06:26:52;;;;;;;2.05;1.20;;;9.80;99.90;;;;;;10591726;27;20051;-73
2024/01/03 06:31:57;;;;;;;4.88;2.17;;;9.50;99.90;;;;;;10575936;27;20417;-73
2024/01/03 06:37:00;;;;;;;0.10;0.10;;;9.60;99.90;;;;;;10584479;27;20123;-71
2024/01/03 06:42:03;;;;;;;0.20;0.20;;;9.60;99.90;;;;;;10583814;27;20731;-73
2024/01/03 06:47:07;;;;;;;0.20;0.20;;;9.50;99.90;;;;;;10584381;27;20047;-73
2024/01/03 06:52:09;;;;;;;0.30;0.30;;;9.50;99.90;;;;;;10582159;27;20043;-75
2024/01/03 06:57:11;;;;;;;37.80;5.00;;;9.60;99.90;;;;;;10587067;27;20131;-74
2024/01/03 07:02:15;;;;;;;33.77;3.80;;;9.60;99.90;;;;;;10589861;27;20089;-73
2024/01/03 07:07:20;;;;;;;37.75;5.00;;;9.60;99.90;;;;;;10585463;27;22572;-73
2024/01/03 07:12:22;;;;;;;40.28;6.68;;;9.70;99.90;;;;;;10586411;27;20090;-73
2024/01/03 07:17:26;;;;;;;49.55;5.35;;;9.80;99.90;;;;;;10577774;27;20150;-74
2024/01/03 07:22:28;;;;;;;42.15;4.10;;;9.80;99.90;;;;;;10586581;27;20047;-72
2024/01/03 07:27:32;;;;;;;40.55;6.63;;;9.90;99.90;;;;;;10587414;27;20054;-73
2024/01/03 07:32:35;;;;;;;48.38;8.05;;;9.90;99.90;;;;;;10584446;27;20666;-72
2024/01/03 07:37:37;;;;;;;35.90;5.80;;;9.90;99.90;;;;;;10574241;27;20043;-73
2024/01/03 07:42:39;;;;;;;50.38;6.57;;;9.90;99.90;;;;;;10586761;27;20047;-73
2024/01/03 07:47:43;;;;;;;40.58;5.45;;;9.90;99.90;;;;;;10584452;27;20051;-74
2024/01/03 07:52:45;;;;;;;39.28;5.00;;;9.80;99.90;;;;;;10586348;27;20055;-77
2024/01/03 07:57:47;;;;;;;30.25;4.05;;;9.90;99.90;;;;;;10585919;27;20050;-73
2024/01/03 08:02:50;;;;;;;27.77;4.68;;;9.90;99.90;;;;;;10583908;27;20051;-73
2024/01/03 08:07:52;;;;;;;28.95;4.43;;;9.90;99.90;;;;;;10586712;27;20157;-74
2024/01/03 08:12:55;;;;;;;36.30;4.75;;;10.00;99.90;;;;;;10580674;27;20047;-75
2024/01/03 08:18:00;;;;;;;43.70;7.35;;;10.10;99.90;;;;;;10586802;28;20054;-74
2024/01/03 08:23:11;;;;;;;26.52;3.42;;;10.00;99.90;;;;;;10587821;27;20050;-74
2024/01/03 08:28:13;;;;;;;44.17;7.55;;;10.00;99.90;;;;;;10588526;28;20043;-73
2024/01/03 08:33:19;;;;;;;34.65;4.82;;;10.10;99.90;;;;;;10570248;27;20062;-75
2024/01/03 08:38:21;;;;;;;27.95;4.63;;;10.00;99.90;;;;;;10586609;28;20116;-75
2024/01/03 08:43:23;;;;;;;43.63;5.20;;;10.10;99.90;;;;;;10584024;27;20067;-73
2024/01/03 08:48:27;;;;;;;45.40;4.80;;;10.10;99.90;;;;;;10584219;27;20124;-73
2024/01/03 08:53:29;;;;;;;27.98;4.75;;;10.00;99.90;;;;;;10578426;27;20162;-72
2024/01/03 08:58:31;;;;;;;25.70;4.67;;;10.00;99.90;;;;;;10588294;27;20127;-72
2024/01/03 09:03:36;;;;;;;28.90;5.18;;;9.90;99.90;;;;;;10583512;27;20500;-74
2024/01/03 09:08:38;;;;;;;38.35;4.57;;;9.90;99.90;;;;;;10590862;27;20446;-73
2024/01/03 09:13:41;;;;;;;37.97;6.43;;;9.90;99.90;;;;;;10593952;27;20054;-73
2024/01/03 09:18:46;;;;;;;36.17;4.80;;;10.00;99.90;;;;;;10591369;27;20064;-74
2024/01/03 09:23:48;;;;;;;23.27;2.63;;;9.90;99.90;;;;;;10594074;27;20043;-74
2024/01/03 09:28:51;;;;;;;22.87;3.37;;;10.00;99.90;;;;;;10592766;27;20746;-74
2024/01/03 09:33:55;;;;;;;39.40;5.85;;;10.00;99.90;;;;;;10589938;27;20375;-73
2024/01/03 09:38:57;;;;;;;36.90;5.00;;;10.00;99.90;;;;;;10579719;27;20142;-73
2024/01/03 09:44:00;;;;;;;18.33;2.73;;;10.00;99.90;;;;;;10588471;27;20047;-74
2024/01/03 09:49:04;;;;;;;29.95;4.57;;;9.90;99.90;;;;;;10593844;27;20048;-73
2024/01/03 09:54:08;;;;;;;20.48;3.90;;;10.00;99.90;;;;;;10574476;27;20075;-73
2024/01/03 09:59:11;;;;;;;28.50;4.57;;;10.00;99.90;;;;;;10589863;27;20047;-73
2024/01/03 10:04:15;;;;;;;30.65;4.75;;;10.00;99.90;;;;;;10590605;27;20135;-74
2024/01/03 10:09:17;;;;;;;25.42;3.45;;;10.00;99.90;;;;;;10579773;27;20108;-76
2024/01/03 10:14:23;;;;;;;29.43;4.13;;;10.10;99.90;;;;;;10589649;27;20058;-75
2024/01/03 10:19:30;;;;;;;35.28;5.13;;;10.20;99.90;;;;;;10587822;27;20483;-74
2024/01/03 10:24:32;;;;;;;35.40;4.32;;;10.30;99.90;;;;;;10589272;27;20049;-74
2024/01/03 10:29:34;;;;;;;47.97;7.43;;;10.40;99.90;;;;;;10590914;27;20051;-75
2024/01/03 10:34:38;;;;;;;26.65;4.07;;;10.20;99.90;;;;;;10587778;27;20047;-74
2024/01/03 10:39:43;;;;;;;13.57;2.65;;;10.20;99.90;;;;;;10592729;27;20088;-74
2024/01/03 10:44:45;;;;;;;37.42;7.25;;;10.20;99.90;;;;;;10589141;27;20053;-75
2024/01/03 10:49:49;;;;;;;28.75;5.38;;;10.20;99.90;;;;;;10588582;27;20051;-74
2024/01/03 10:54:57;;;;;;;42.38;5.63;;;10.20;99.90;;;;;;10583369;27;20043;-76
2024/01/03 11:00:12;;;;;;;41.53;7.28;;;10.20;99.90;;;;;;10589954;27;20050;-74
2024/01/03 11:05:25;;;;;;;47.40;6.75;;;10.30;99.90;;;;;;10586327;27;20047;-75
2024/01/03 11:10:47;;;;;;;31.30;6.20;;;10.40;99.90;;;;;;10595452;27;20047;-71
2024/01/03 11:15:49;;;;;;;51.20;8.88;;;10.60;99.90;;;;;;10592130;27;20039;-74
2024/01/03 11:20:53;;;;;;;39.58;8.07;;;10.90;99.90;;;;;;10585074;27;20135;-74
2024/01/03 11:25:56;;;;;;;36.80;5.60;;;10.70;99.90;;;;;;10584471;27;20043;-75
2024/01/03 11:30:59;;;;;;;52.47;8.07;;;10.70;99.90;;;;;;10584072;27;20098;-74
2024/01/03 11:36:03;;;;;;;80.05;13.25;;;10.70;99.90;;;;;;10581829;27;20522;-74
2024/01/03 11:41:07;;;;;;;73.75;12.73;;;10.70;99.90;;;;;;10581492;27;20516;-75
2024/01/03 11:46:09;;;;;;;;;;;10.60;99.90;;;;;;10580221;27;20587;-73
2024/01/03 11:51:24;;;;;;;67.57;11.13;;;10.60;99.90;;;;;;10581798;27;19919;-74
2024/01/03 11:56:31;;;;;;;61.97;9.57;;;10.50;99.90;;;;;;10579648;27;20489;-75
2024/01/03 12:01:35;;;;;;;42.17;6.63;;;10.50;99.90;;;;;;10581412;27;20054;-74
2024/01/03 12:06:39;;;;;;;56.28;7.15;;;10.60;99.90;;;;;;10580673;27;20587;-73
2024/01/03 12:11:41;;;;;;;30.92;5.20;;;10.50;99.90;;;;;;10578816;27;20170;-74
2024/01/03 12:16:47;;;;;;;55.13;8.23;;;10.70;99.90;;;;;;10579585;27;20062;-75
2024/01/03 12:21:56;;;;;;;60.05;6.53;;;10.40;99.90;;;;;;10592081;27;20062;-75
2024/01/03 12:26:58;;;;;;;52.75;6.22;;;10.40;99.90;;;;;;10576022;27;20051;-72
2024/01/03 12:32:10;;;;;;;58.53;8.38;;;10.50;99.90;;;;;;10580054;27;20075;-71
2024/01/03 12:37:13;;;;;;;59.45;8.68;;;10.40;99.90;;;;;;10587514;27;20054;-70
2024/01/03 12:42:15;;;;;;;56.97;7.47;;;10.50;99.90;;;;;;10584940;27;20139;-68
2024/01/03 12:47:18;;;;;;;74.85;7.20;;;10.50;99.90;;;;;;10579363;27;20051;-75
2024/01/03 12:52:27;;;;;;;;;;;10.60;99.90;;;;;;10587110;27;20066;-75
2024/01/03 12:57:30;;;;;;;61.28;9.57;;;10.60;99.90;;;;;;10589302;27;22529;-75
2024/01/03 13:02:32;;;;;;;59.20;8.20;;;10.50;99.90;;;;;;10596327;27;20051;-75
2024/01/03 13:07:36;;;;;;;73.00;9.90;;;10.70;99.90;;;;;;10593528;27;20469;-76
2024/01/03 13:12:38;;;;;;;66.03;8.52;;;10.80;99.90;;;;;;10586603;27;20089;-74
2024/01/03 13:17:42;;;;;;;66.57;8.80;;;10.80;99.90;;;;;;10587453;27;20082;-78
2024/01/03 13:22:45;;;;;;;60.15;8.70;;;10.80;99.90;;;;;;10585766;27;20193;-74
2024/01/03 13:27:48;;;;;;;86.72;13.88;;;10.70;99.90;;;;;;10584337;27;20081;-75
2024/01/03 13:32:50;;;;;;;75.00;13.97;;;10.60;99.90;;;;;;10587169;27;20570;-74
2024/01/03 13:37:53;;;;;;;50.73;8.43;;;10.60;99.90;;;;;;10587142;27;20132;-76
2024/01/03 13:42:55;;;;;;;0.20;0.20;;;10.40;99.90;;;;;;10593561;27;20888;-75
2024/01/03 13:47:58;;;;;;;1.38;1.38;;;10.60;99.90;;;;;;10587028;27;20047;-74
2024/01/03 13:53:03;;;;;;;0.68;0.68;;;10.30;99.90;;;;;;10586710;27;20726;-73
2024/01/03 13:58:05;;;;;;;0.10;0.10;;;10.00;99.90;;;;;;10584678;27;20047;-73
2024/01/03 14:03:08;;;;;;;0.15;0.15;;;9.80;99.90;;;;;;10584778;27;20924;-73
2024/01/03 14:08:13;;;;;;;0.10;0.10;;;9.60;99.90;;;;;;10576234;27;20050;-73
2024/01/03 14:13:17;;;;;;;0.20;0.20;;;9.80;99.90;;;;;;10583241;27;20761;-73
2024/01/03 14:18:19;;;;;;;0.10;0.10;;;9.70;99.90;;;;;;10585507;27;20968;-75
2024/01/03 14:23:23;;;;;;;0.10;0.10;;;9.50;99.90;;;;;;10590932;27;20756;-74
2024/01/03 14:28:26;;;;;;;0.10;0.10;;;9.80;99.90;;;;;;10591118;27;20726;-74
2024/01/03 14:33:28;;;;;;;0.17;0.17;;;9.90;99.90;;;;;;10579686;27;20823;-75
2024/01/03 14:38:34;;;;;;;1.55;1.13;;;9.80;99.90;;;;;;10585351;27;20059;-74
2024/01/03 14:43:43;;;;;;;0.20;0.20;;;9.80;99.90;;;;;;10586082;27;20050;-74
2024/01/03 14:48:46;;;;;;;0.20;0.20;;;9.90;99.90;;;;;;10588226;27;20054;-74
2024/01/03 14:53:49;;;;;;;1.03;0.93;;;10.10;99.90;;;;;;10584333;27;20059;-74
2024/01/03 14:58:52;;;;;;;0.10;0.10;;;9.80;99.90;;;;;;10582980;27;20050;-73
2024/01/03 15:03:54;;;;;;;0.55;0.55;;;9.80;99.90;;;;;;10581607;27;20119;-74
2024/01/03 15:08:58;;;;;;;0.40;0.40;;;9.90;99.90;;;;;;10579651;27;20096;-74
2024/01/03 15:14:01;;;;;;;0.68;0.68;;;10.00;99.90;;;;;;10563751;27;22414;-74
2024/01/03 15:19:03;;;;;;;0.20;0.20;;;9.90;99.90;;;;;;10581615;27;20664;-74
2024/01/03 15:24:08;;;;;;;0.57;0.57;;;10.10;99.90;;;;;;10577597;27;21348;-74
2024/01/03 15:29:12;;;;;;;0.20;0.20;;;10.20;99.90;;;;;;10582482;27;20051;-69
2024/01/03 15:34:14;;;;;;;48.08;7.82;;;9.90;99.90;;;;;;10582465;27;20047;-69
2024/01/03 15:39:17;;;;;;;48.75;8.98;;;9.60;99.90;;;;;;10578764;27;20051;-68
2024/01/03 15:44:19;;;;;;;29.63;4.82;;;9.40;99.90;;;;;;10577060;27;20047;-69
2024/01/03 15:49:24;;;;;;;21.70;2.65;;;9.60;99.90;;;;;;10575910;27;20146;-67
2024/01/03 15:54:28;;;;;;;40.97;6.65;;;9.60;99.90;;;;;;10578427;27;20577;-68
2024/01/03 15:59:30;;;;;;;38.17;5.32;;;9.70;99.90;;;;;;10576350;27;20054;-67
2024/01/03 16:04:32;;;;;;;24.20;5.22;;;9.50;99.90;;;;;;10578890;27;20092;-69
2024/01/03 16:09:37;;;;;;;0.20;0.20;;;9.40;99.90;;;;;;10579407;27;20054;-69
2024/01/03 16:14:40;;;;;;;0.10;0.10;;;9.30;99.90;;;;;;10577238;27;20043;-69
2024/01/03 16:19:43;;;;;;;;;;;9.70;99.90;;;;;;10580724;27;20098;-66
2024/01/03 16:24:46;;;;;;;0.20;0.20;;;9.60;99.90;;;;;;10577880;27;19923;-68
2024/01/03 16:29:48;;;;;;;6.78;1.23;;;9.70;99.90;;;;;;10576601;27;20055;-68
2024/01/03 16:34:50;;;;;;;0.68;0.68;;;10.00;99.90;;;;;;10579797;27;20522;-69
2024/01/03 16:39:55;;;;;;;0.30;0.30;;;9.90;99.90;;;;;;10578876;27;20709;-69
2024/01/03 16:44:58;;;;;;;0.10;0.10;;;9.70;99.90;;;;;;10573009;27;20047;-70
2024/01/03 16:50:00;;;;;;;0.20;0.20;;;9.40;99.90;;;;;;10573999;27;20147;-70
2024/01/03 16:55:04;;;;;;;0.10;0.10;;;8.90;99.90;;;;;;10575661;27;20046;-69
2024/01/03 17:00:12;;;;;;;0.20;0.20;;;8.60;99.90;;;;;;10571895;27;20207;-70
2024/01/03 17:05:14;;;;;;;2.92;1.40;;;8.40;99.90;;;;;;10571928;27;20051;-68
2024/01/03 17:10:18;;;;;;;0.20;0.20;;;8.40;99.90;;;;;;10575730;27;20047;-70
2024/01/03 17:15:20;;;;;;;0.10;0.10;;;8.50;99.90;;;;;;10576518;27;20123;-70
2024/01/03 17:20:22;;;;;;;0.20;0.20;;;8.40;99.90;;;;;;10578605;27;20121;-69
2024/01/03 17:25:26;;;;;;;0.20;0.20;;;9.00;99.90;;;;;;10580951;27;20761;-69
2024/01/03 17:30:28;;;;;;;0.25;0.25;;;8.40;99.90;;;;;;10581211;27;20054;-70
2024/01/03 17:35:30;;;;;;;0.20;0.20;;;8.40;99.90;;;;;;10576349;27;20531;-70
2024/01/03 17:40:34;;;;;;;0.28;0.28;;;8.40;99.90;;;;;;10576873;27;20055;-69
2024/01/03 17:45:36;;;;;;;0.10;0.10;;;8.50;99.90;;;;;;10573735;27;20231;-70
2024/01/03 17:50:38;;;;;;;0.10;0.10;;;8.50;99.90;;;;;;10577806;27;20781;-69
2024/01/03 17:55:42;;;;;;;0.10;0.10;;;8.60;99.90;;;;;;10572565;27;20043;-69
2024/01/03 18:00:44;;;;;;;0.10;0.10;;;8.70;99.90;;;;;;10578335;27;20058;-70
2024/01/03 18:05:46;;;;;;;0.20;0.20;;;8.90;99.90;;;;;;10571393;27;20095;-69
2024/01/03 18:10:50;;;;;;;0.20;0.20;;;9.00;99.90;;;;;;10575089;27;20445;-69
2024/01/03 18:15:52;;;;;;;0.20;0.20;;;8.10;99.90;;;;;;10579261;27;20134;-70
2024/01/03 18:20:54;;;;;;;0.75;0.75;;;7.90;99.90;;;;;;10576085;27;20055;-71
2024/01/03 18:25:58;;;;;;;7.88;3.70;;;8.10;99.90;;;;;;10580039;27;20081;-71
2024/01/03 18:31:02;;;;;;;2.30;2.15;;;8.30;99.90;;;;;;10583815;27;20256;-71
2024/01/03 18:36:05;;;;;;;0.20;0.20;;;8.50;99.90;;;;;;10582782;27;20073;-72
2024/01/03 18:41:09;;;;;;;0.10;0.10;;;8.70;99.90;;;;;;10583220;27;20050;-72
2024/01/03 18:46:12;;;;;;;0.70;0.70;;;8.90;99.90;;;;;;10577578;27;20043;-70
2024/01/03 18:51:15;;;;;;;0.22;0.22;;;9.00;99.90;;;;;;10576712;27;20047;-71
2024/01/03 18:56:18;;;;;;;0.20;0.20;;;8.80;99.90;;;;;;10577508;27;20061;-73
2024/01/03 19:01:23;;;;;;;0.20;0.20;;;8.40;99.90;;;;;;10577463;27;20776;-71
2024/01/03 19:06:26;;;;;;;0.40;0.40;;;8.40;99.90;;;;;;10572345;27;20780;-70
2024/01/03 19:11:32;;;;;;;0.20;0.20;;;8.70;99.90;;;;;;10577451;27;20047;-73
2024/01/03 19:16:35;;;;;;;0.28;0.28;;;8.80;99.90;;;;;;10577309;27;20043;-74
2024/01/03 19:21:37;;;;;;;0.10;0.10;;;8.60;99.90;;;;;;10580647;27;20070;-73
2024/01/03 19:26:40;;;;;;;0.22;0.22;;;8.20;99.90;;;;;;10568821;27;20125;-73
2024/01/03 19:31:43;;;;;;;0.15;0.15;;;8.10;99.90;;;;;;10575187;27;20086;-73
2024/01/03 19:36:46;;;;;;;0.20;0.20;;;8.20;99.90;;;;;;10578700;27;20051;-71
2024/01/03 19:41:49;;;;;;;0.17;0.17;;;8.20;99.90;;;;;;10581204;27;20055;-75
2024/01/03 19:46:52;;;;;;;34.60;1.83;;;8.40;99.90;;;;;;10581313;27;20049;-75
2024/01/03 19:51:55;;;;;;;0.10;0.10;;;8.40;99.90;;;;;;10578272;27;20055;-76
2024/01/03 19:56:58;;;;;;;0.20;0.20;;;8.80;99.90;;;;;;10579669;27;20046;-75
2024/01/03 20:02:01;;;;;;;0.20;0.20;;;8.80;99.90;;;;;;10578405;27;20418;-77
2024/01/03 20:07:03;;;;;;;0.10;0.10;;;8.70;99.90;;;;;;10578428;27;20481;-78
2024/01/03 20:12:08;;;;;;;1.33;1.27;;;9.40;99.90;;;;;;10573891;27;20238;-75
2024/01/03 20:17:10;;;;;;;0.95;0.95;;;9.30;99.90;;;;;;10577015;27;20584;-77
2024/01/03 20:22:13;;;;;;;0.10;0.10;;;9.60;99.90;;;;;;10575563;27;20242;-77
2024/01/03 20:27:16;;;;;;;0.32;0.32;;;9.20;99.90;;;;;;10578076;27;20050;-76
2024/01/03 20:32:18;;;;;;;0.20;0.20;;;9.30;99.90;;;;;;10575533;27;20085;-76
2024/01/03 20:37:21;;;;;;;0.20;0.20;;;9.20;99.90;;;;;;10572721;27;20422;-76
2024/01/03 20:42:25;;;;;;;0.20;0.20;;;9.30;99.90;;;;;;10570353;27;20141;-77
2024/01/03 20:47:27;;;;;;;0.17;0.17;;;9.10;99.90;;;;;;10574515;27;20058;-76
2024/01/03 20:52:31;;;;;;;0.13;0.13;;;9.20;99.90;;;;;;10573233;27;20148;-75
2024/01/03 20:57:35;;;;;;;0.10;0.10;;;9.10;99.90;;;;;;10581298;27;20067;-76
2024/01/03 21:02:39;;;;;;;0.20;0.20;;;9.10;99.90;;;;;;10574717;27;20126;-73
2024/01/03 21:07:42;;;;;;;0.13;0.13;;;9.20;99.90;;;;;;10581627;27;20108;-76
2024/01/03 21:12:45;;;;;;;0.10;0.10;;;9.10;99.90;;;;;;10580706;27;20063;-74
2024/01/03 21:17:48;;;;;;;0.30;0.30;;;9.30;99.90;;;;;;10580782;27;20087;-74
2024/01/03 21:22:50;;;;;;;0.13;0.13;;;9.10;99.90;;;;;;10579792;27;20081;-75
2024/01/03 21:27:57;;;;;;;0.20;0.20;;;9.10;99.90;;;;;;10581882;27;20503;-73
2024/01/03 21:32:59;;;;;;;0.10;0.10;;;9.40;99.90;;;;;;10576075;27;20051;-74
2024/01/03 21:38:01;;;;;;;0.30;0.30;;;9.20;99.90;;;;;;10571817;27;20169;-75
2024/01/03 21:43:05;;;;;;;0.30;0.30;;;9.10;99.90;;;;;;10579439;27;20074;-77
2024/01/03 21:48:08;;;;;;;0.20;0.20;;;8.90;99.90;;;;;;10579706;27;20166;-75
2024/01/03 21:53:10;;;;;;;0.13;0.13;;;9.00;99.90;;;;;;10582110;27;20524;-76
2024/01/03 21:58:14;;;;;;;0.30;0.30;;;8.90;99.90;;;;;;10567930;27;20039;-77
2024/01/03 22:03:16;;;;;;;0.50;0.50;;;8.70;99.90;;;;;;10576095;27;20058;-74
2024/01/03 22:08:20;;;;;;;2.20;1.43;;;8.70;99.90;;;;;;10572303;27;20039;-76
2024/01/03 22:13:23;;;;;;;0.65;0.65;;;8.80;99.90;;;;;;10579995;27;20067;-76
2024/01/03 22:18:25;;;;;;;1.08;1.08;;;8.80;99.90;;;;;;10583762;27;20039;-78
2024/01/03 22:23:28;;;;;;;0.10;0.10;;;8.70;99.90;;;;;;10586833;27;20096;-76
2024/01/03 22:28:34;;;;;;;0.20;0.20;;;8.70;99.90;;;;;;10587891;27;20047;-75
2024/01/03 22:33:36;;;;;;;0.13;0.13;;;8.90;99.90;;;;;;10593976;27;20050;-76
2024/01/03 22:38:38;;;;;;;0.10;0.10;;;8.50;99.90;;;;;;10590324;27;20140;-77
2024/01/03 22:43:42;;;;;;;2.55;2.35;;;8.50;99.90;;;;;;10580340;27;20055;-76
2024/01/03 22:48:47;;;;;;;0.10;0.10;;;8.50;99.90;;;;;;10600154;27;20043;-77
2024/01/03 22:53:49;;;;;;;0.10;0.10;;;9.00;99.90;;;;;;10596443;27;20146;-76
2024/01/03 22:58:55;;;;;;;0.17;0.17;;;8.70;99.90;;;;;;10591850;27;20465;-76
2024/01/03 23:03:58;;;;;;;0.20;0.20;;;8.60;99.90;;;;;;10593755;27;20043;-77
2024/01/03 23:09:00;;;;;;;;;;;8.60;99.90;;;;;;10578166;27;20097;-75
2024/01/03 23:14:04;;;;;;;0.13;0.13;;;8.60;99.90;;;;;;10585667;27;19930;-75
2024/01/03 23:19:06;;;;;;;0.15;0.15;;;8.60;99.90;;;;;;10586004;27;20834;-75
2024/01/03 23:24:08;;;;;;;0.20;0.20;;;8.80;99.90;;;;;;10594541;27;20042;-75
2024/01/03 23:29:12;;;;;;;1.07;0.97;;;8.80;99.90;;;;;;10595623;27;20042;-76
2024/01/03 23:34:15;;;;;;;0.30;0.30;;;8.80;99.90;;;;;;10593123;27;20403;-76
2024/01/03 23:39:17;;;;;;;0.25;0.25;;;8.90;99.90;;;;;;10586664;27;20800;-74
2024/01/03 23:44:20;;;;;;;0.10;0.10;;;9.10;99.90;;;;;;10572779;27;20057;-76
2024/01/03 23:49:23;;;;;;;0.20;0.20;;;9.00;99.90;;;;;;10581708;27;20546;-74
2024/01/03 23:54:25;;;;;;;0.20;0.20;;;9.10;99.90;;;;;;10583231;27;20683;-75
2024/01/03 23:59:29;;;;;;;0.20;0.20;;;9.20;99.90;;;;;;10583490;27;20070;-74
